Latest Weather Observations for Sheoaks

IDV60801

Issued at 8:03 am EDT Saturday 10 December 2016 (issued every 30 minutes, with the page automatically refreshed every 10 minutes)

About weather observations | Map of weather stations | Latest weather observations for VIC | Other Formats
Station Details ID: 087168 Name: SHEOAKS Lat: -37.91 Lon: 144.13 Height: 236.7 m
Data from the previous 72 hours. | See also: Recent months at Sheoaks
Date/Time
EDT
Temp
°C
App
Temp
°C
Dew
Point
°C
Rel
Hum
%
Delta-T
°C
Wind Press
QNH
hPa
Press
MSL
hPa
Rain since
9am
mm
Dir  Spd
km/h
Gust
km/h
Spd
kts
Gust
kts
10/08:00am 11.2 9.5 5.9 70 2.5 WSW 4 6 2 3 1023.9 1023.5 0.0
10/07:30am 10.7 9.0 5.7 71 2.3 SW 4 7 2 4 1023.6 1023.2 0.0
10/07:00am 10.2 9.5 6.9 80 1.6 CALM 0 0 0 0 1023.2 1022.8 0.0
10/06:30am 9.7 9.0 7.1 84 1.2 CALM 0 0 0 0 1022.8 1022.3 0.0
10/06:00am 9.4 8.6 6.7 83 1.3 CALM 0 2 0 1 1022.4 1021.9 0.0
10/05:30am 9.5 8.0 6.9 84 1.2 W 4 4 2 2 1022.1 1021.6 0.0
10/05:00am 9.6 8.8 6.7 82 1.4 CALM 0 0 0 0 1022.0 1021.5 0.0
10/04:30am 9.6 8.1 6.7 82 1.4 WSW 4 7 2 4 1022.1 1021.6 0.0
10/04:00am 9.7 7.8 6.6 81 1.5 SW 6 9 3 5 1022.2 1021.7 0.0
10/03:30am 9.9 8.3 6.3 78 1.7 SW 4 7 2 4 1021.9 1021.4 0.0
10/03:00am 9.8 8.2 6.3 79 1.6 SW 4 6 2 3 1021.9 1021.4 0.0
10/02:30am 9.7 8.2 7.0 83 1.3 WSW 4 9 2 5 1022.1 1021.6 0.0
10/02:00am 9.7 8.2 7.0 83 1.3 WSW 4 6 2 3 1022.2 1021.7 0.0
10/01:30am 9.8 8.0 7.2 84 1.2 WSW 6 9 3 5 1022.4 1021.9 0.0
10/01:00am 9.8 7.9 6.9 82 1.4 WSW 6 7 3 4 1022.6 1022.1 0.0
10/12:30am 9.9 8.0 6.6 80 1.6 WSW 6 9 3 5 1022.7 1022.2 0.0
10/12:00am 10.1 8.1 6.4 78 1.7 WSW 6 9 3 5 1022.8 1022.3 0.0
 
Date/Time
EDT
Temp
°C
App
Temp
°C
Dew
Point
°C
Rel
Hum
%
Delta-T
°C
Wind Press
QNH
hPa
Press
MSL
hPa
Rain since
9am
mm
Dir  Spd
km/h
Gust
km/h
Spd
kts
Gust
kts
09/11:30pm 10.1 8.2 6.6 79 1.7 WSW 6 9 3 5 1023.0 1022.6 0.0
09/11:00pm 10.2 8.2 6.9 80 1.6 WSW 7 15 4 8 1022.8 1022.3 0.0
09/10:30pm 10.4 7.5 6.5 77 1.9 SW 11 17 6 9 1022.8 1022.3 0.0
09/10:00pm 10.5 8.0 6.6 77 1.8 SW 9 17 5 9 1022.6 1022.1 0.0
09/09:30pm 10.7 8.2 6.6 76 2.0 SW 9 17 5 9 1022.3 1021.8 0.0
09/09:00pm 10.8 7.5 6.4 74 2.1 SW 13 20 7 11 1022.2 1021.7 0.0
09/08:30pm 11.7 8.7 6.2 69 2.6 SW 11 19 6 10 1021.8 1021.3 0.0
09/08:00pm 12.1 9.4 5.7 65 3.0 SW 9 20 5 11 1021.4 1020.9 0.0
09/07:30pm 12.2 8.1 6.0 66 3.0 SW 17 28 9 15 1021.1 1020.6 0.0
09/07:00pm 12.8 8.6 5.7 62 3.4 SW 17 26 9 14 1020.8 1020.3 0.0
09/06:30pm 13.5 10.4 5.7 59 3.7 WSW 11 24 6 13 1020.2 1019.8 0.0
09/06:00pm 13.3 8.8 5.9 61 3.5 SW 19 32 10 17 1020.0 1019.6 0.0
09/05:30pm 13.7 9.4 5.3 57 4.0 SW 17 30 9 16 1019.8 1019.4 0.0
09/05:00pm 14.2 9.7 6.1 58 3.9 SW 19 32 10 17 1019.7 1019.3 0.0
09/04:30pm 13.9 9.2 5.3 56 4.1 WSW 19 33 10 18 1019.6 1019.2 0.0
09/04:00pm 15.7 11.6 4.1 46 5.4 WSW 15 32 8 17 1019.3 1018.9 0.0
09/03:30pm 14.4 9.5 5.0 53 4.5 WSW 20 33 11 18 1019.4 1019.0 0.0
09/03:00pm 15.3 10.7 3.8 46 5.3 WSW 17 30 9 16 1019.1 1018.6 0.0
09/02:30pm 15.1 10.2 3.9 47 5.2 WSW 19 32 10 17 1018.9 1018.4 0.0
09/02:00pm 15.2 10.3 4.3 48 5.1 WSW 19 32 10 17 1018.9 1018.4 0.0
09/01:30pm 14.5 9.4 4.2 50 4.8 WSW 20 33 11 18 1018.8 1018.3 0.0
09/01:00pm 14.7 9.9 2.6 44 5.4 WSW 17 32 9 17 1018.7 1018.2 0.0
09/12:30pm 13.9 9.5 4.5 53 4.4 SW 17 30 9 16 1018.6 1018.1 0.0
09/12:00pm 14.4 9.5 4.1 50 4.8 SW 19 26 10 14 1018.2 1017.7 0.0
09/11:30am 13.1 7.0 2.9 50 4.6 SW 24 39 13 21 1017.8 1017.3 0.0
09/11:00am 12.4 7.2 2.3 50 4.4 WSW 19 35 10 19 1017.6 1017.1 0.0
09/10:30am 12.4 6.4 3.1 53 4.2 SW 24 39 13 21 1017.2 1016.7 0.0
09/10:00am 11.1 6.3 4.8 65 2.9 SW 19 30 10 16 1017.1 1016.6 0.0
09/09:30am 11.4 6.0 4.6 63 3.1 SW 22 33 12 18 1016.7 1016.2 0.0
09/09:00am 11.0 6.5 6.0 71 2.4 SW 19 32 10 17 1016.3 1015.8 7.4
09/08:30am 9.9 5.5 6.4 79 1.7 WSW 19 26 10 14 1015.6 1015.2 7.4
09/08:00am 9.8 6.6 6.7 81 1.5 W 13 24 7 13 1015.0 1014.5 7.4
09/07:30am 8.8 5.9 6.4 85 1.1 WSW 11 20 6 11 1014.8 1014.3 7.4
09/07:00am 7.9 5.3 6.0 88 0.9 WSW 9 15 5 8 1014.1 1013.6 7.4
09/06:30am 7.8 4.8 5.8 87 0.9 WSW 11 22 6 12 1013.5 1013.0 7.4
09/06:00am 7.3 3.8 5.4 88 0.9 W 13 20 7 11 1012.9 1012.4 7.4
09/05:30am 7.2 3.2 5.0 86 1.0 W 15 19 8 10 1012.2 1011.7 7.4
09/05:00am 7.4 3.5 5.2 86 1.0 W 15 20 8 11 1011.9 1011.3 7.4
09/04:30am 7.2 3.2 4.9 85 1.0 W 15 20 8 11 1011.3 1010.8 7.4
09/04:00am 7.8 3.5 5.4 85 1.1 W 17 33 9 18 1010.8 1010.3 7.4
09/03:30am 7.1 3.5 5.1 87 0.9 W 13 19 7 10 1010.6 1010.1 7.4
09/03:00am 7.8 3.8 5.1 83 1.2 WSW 15 22 8 12 1010.3 1009.8 7.4
09/02:30am 8.2 4.4 5.8 85 1.1 WSW 15 22 8 12 1010.1 1009.6 7.4
09/02:00am 8.4 4.5 7.0 91 0.7 W 17 24 9 13 1010.1 1009.6 7.4
09/01:30am 8.4 4.9 7.2 92 0.6 W 15 20 8 11 1009.8 1009.3 7.4
09/01:00am 8.5 5.0 7.3 92 0.6 W 15 22 8 12 1009.8 1009.3 7.4
09/12:30am 9.2 5.0 7.6 90 0.8 WSW 19 35 10 19 1009.6 1009.1 7.2
09/12:00am 9.8 6.0 7.7 87 1.0 W 17 24 9 13 1009.2 1008.7 6.4
 
Date/Time
EDT
Temp
°C
App
Temp
°C
Dew
Point
°C
Rel
Hum
%
Delta-T
°C
Wind Press
QNH
hPa
Press
MSL
hPa
Rain since
9am
mm
Dir  Spd
km/h
Gust
km/h
Spd
kts
Gust
kts
08/11:30pm 10.0 6.3 7.9 87 1.0 W 17 26 9 14 1008.9 1008.4 6.4
08/11:00pm 10.1 6.0 7.9 86 1.1 W 19 30 10 16 1008.7 1008.2 6.4
08/10:30pm 10.6 6.9 8.0 84 1.3 W 17 33 9 18 1008.3 1007.8 6.4
08/10:00pm 10.5 7.0 8.8 89 0.9 WSW 17 24 9 13 1007.7 1007.1 6.4
08/09:30pm 10.9 6.8 8.8 87 1.1 WSW 20 43 11 23 1006.9 1006.4 6.4
08/09:00pm 10.9 7.2 9.3 90 0.8 WSW 19 30 10 16 1006.2 1005.7 6.4
08/08:30pm 11.2 7.3 9.5 89 0.9 WSW 20 32 11 17 1005.7 1005.2 6.2
08/08:00pm 11.6 8.1 10.2 91 0.7 W 19 35 10 19 1004.9 1004.4 6.2
08/07:30pm 11.0 6.7 9.4 90 0.8 WSW 22 39 12 21 1004.1 1003.5 6.2
08/07:00pm 12.5 6.8 9.7 83 1.5 W 30 50 16 27 1002.9 1002.3 4.0
08/06:44pm 12.9 7.6 9.9 82 1.6 W 28 48 15 26 1002.4 1001.9 4.0
08/06:30pm 12.9 7.9 10.8 87 1.1 W 28 44 15 24 1002.1 1001.6 4.0
08/06:09pm 13.4 7.9 10.6 83 1.5 W 30 50 16 27 1001.5 1001.0 3.6
08/06:00pm 13.1 7.2 10.3 83 1.5 W 32 50 17 27 1001.3 1000.8 3.6
08/05:30pm 13.1 6.5 9.9 81 1.7 W 35 74 19 40 1000.5 999.9 2.4
08/05:00pm 12.5 5.8 9.7 83 1.5 W 35 56 19 30 1000.0 999.4 1.6
08/04:30pm 16.1 10.0 8.3 60 4.0 W 30 56 16 30 999.5 998.9 1.6
08/04:00pm 18.1 10.0 6.9 48 5.7 WNW 39 63 21 34 998.9 998.3 1.6
08/03:30pm 18.0 8.8 6.5 47 5.8 W 44 67 24 36 998.9 998.3 1.6
08/03:00pm 17.3 9.3 7.6 53 5.0 W 39 70 21 38 998.8 998.2 1.6
08/02:30pm 18.4 8.8 6.3 45 6.1 W 46 76 25 41 998.0 997.5 1.6
08/02:00pm 19.7 9.9 5.4 39 7.2 WNW 46 74 25 40 997.6 997.1 1.6
08/01:30pm 19.1 9.7 5.2 40 6.8 WNW 44 69 24 37 997.3 996.7 1.6
08/01:00pm 19.5 10.5 6.6 43 6.6 W 43 63 23 34 997.3 996.7 1.6
08/12:30pm 18.3 9.5 7.1 48 5.7 W 43 63 23 34 997.4 996.9 1.6
08/12:00pm 17.1 9.7 8.3 56 4.6 WNW 37 61 20 33 997.9 997.4 1.6
08/11:30am 16.3 9.6 9.5 64 3.6 WNW 35 59 19 32 998.1 997.6 1.6
08/11:19am 15.5 9.6 9.0 65 3.4 WNW 30 52 16 28 998.1 997.6 1.6
08/11:00am 14.9 10.5 10.3 74 2.5 W 24 41 13 22 997.9 997.4 1.6
08/10:40am 13.8 8.0 10.8 82 1.6 WNW 32 52 17 28 997.7 997.2 1.6
08/10:30am 13.1 7.0 10.6 85 1.3 W 33 46 18 25 997.8 997.3 1.6
08/10:00am 14.1 8.3 10.7 80 1.8 W 32 54 17 29 997.4 996.9 1.4
08/09:30am 16.2 12.4 13.7 85 1.4 WNW 26 67 14 36 996.3 995.7 0.2
08/09:01am 17.9 14.0 15.5 86 1.4 NNW 30 50 16 27 995.4 994.8 0.0
08/09:00am 17.9 14.1 15.7 87 1.3 NNW 30 48 16 26 995.5 994.9 3.8
08/08:30am 17.2 12.4 14.7 85 1.5 NNW 33 54 18 29 995.8 995.2 3.6
08/08:00am 17.5 12.5 15.1 86 1.4 NNW 35 57 19 31 995.3 994.7 3.6
08/07:30am 17.0 11.6 15.0 88 1.2 NNW 37 57 20 31 995.9 995.3 3.2
08/07:00am 16.7 12.0 14.9 89 1.1 N 33 54 18 29 996.1 995.5 2.8
08/06:30am 15.9 11.9 15.1 95 0.5 N 30 50 16 27 996.7 996.1 2.2
08/06:00am 16.1 10.2 13.6 85 1.4 N 37 59 20 32 998.0 997.5 1.2
08/05:43am 17.9 11.8 11.9 68 3.3 NNW 35 56 19 30 998.6 998.0 0.2
08/05:30am 18.5 12.6 11.1 62 4.1 NNW 33 50 18 27 998.6 998.0 0.0
08/05:00am 22.3 13.6 8.4 41 7.5 N 44 69 24 37 997.0 996.4 0.0
08/04:30am 23.8 15.7 7.0 34 8.8 N 39 72 21 39 996.8 996.2 0.0
08/04:27am 23.5 16.6 7.2 35 8.6 N 33 67 18 36 997.0 996.4 0.0
08/04:00am 23.5 17.2 5.9 32 9.1 N 28 48 15 26 997.8 997.3 0.0
08/03:44am 23.1 16.9 6.0 33 8.8 N 28 46 15 25 998.1 997.6 0.0
08/03:30am 23.3 15.8 6.1 33 8.9 N 35 52 19 28 998.0 997.5 0.0
08/03:11am 23.2 16.2 6.1 33 8.8 N 32 54 17 29 998.1 997.6 0.0
08/03:00am 23.3 16.3 6.1 33 8.9 N 32 44 17 24 998.1 997.6 0.0
08/02:30am 23.2 16.6 6.1 33 8.8 N 30 41 16 22 998.9 998.3 0.0
08/02:28am 23.2 16.6 6.1 33 8.8 N 30 50 16 27 998.9 998.3 0.0
08/02:00am 22.8 17.0 6.1 34 8.6 N 26 37 14 20 999.8 999.2 0.0
08/01:30am 21.4 15.9 6.1 37 7.8 N 24 32 13 17 1001.1 1000.6 0.0
08/01:00am 20.9 16.0 5.3 36 7.8 N 20 28 11 15 1001.9 1001.4 0.0
08/12:30am 21.0 17.0 5.0 35 8.0 N 15 20 8 11 1003.0 1002.4 0.0
08/12:00am 20.8 16.7 4.4 34 8.1 N 15 22 8 12 1003.8 1003.2 0.0
 
Date/Time
EDT
Temp
°C
App
Temp
°C
Dew
Point
°C
Rel
Hum
%
Delta-T
°C
Wind Press
QNH
hPa
Press
MSL
hPa
Rain since
9am
mm
Dir  Spd
km/h
Gust
km/h
Spd
kts
Gust
kts
07/11:30pm 20.1 16.5 5.0 37 7.5 NNE 13 17 7 9 1004.3 1003.7 0.0
07/11:00pm 17.1 16.6 9.3 60 4.1 N 2 4 1 2 1005.5 1005.0 0.0
07/10:30pm 17.0 15.9 10.1 64 3.7 NE 6 6 3 3 1005.9 1005.4 0.0
07/10:00pm 16.2 15.0 9.4 64 3.6 ENE 6 7 3 4 1006.4 1005.9 0.0
07/09:30pm 16.3 14.6 9.7 65 3.5 E 9 11 5 6 1006.5 1006.0 0.0
07/09:00pm 17.0 15.3 9.7 62 3.9 ESE 9 11 5 6 1007.0 1006.5 0.0
07/08:30pm 19.1 15.4 9.6 54 5.1 SE 19 24 10 13 1007.5 1006.9 0.0
07/08:24pm 19.5 15.8 9.4 52 5.4 SE 19 24 10 13 1007.6 1007.0 0.0
07/08:00pm 24.5 21.5 0.8 21 11.2 NW 6 7 3 4 1007.6 1007.0 0.0
07/07:30pm 25.2 21.1 0.0 19 11.7 NW 11 17 6 9 1007.9 1007.3 0.0
07/07:00pm 26.1 21.3 0.0 18 12.3 NW 15 22 8 12 1008.0 1007.4 0.0
07/06:30pm 26.5 21.8 1.0 19 12.2 NW 15 28 8 15 1008.3 1007.8 0.0
07/06:00pm 26.7 22.0 1.2 19 12.3 NW 15 24 8 13 1008.5 1008.0 0.0
07/05:30pm 26.8 21.4 1.3 19 12.3 WNW 19 28 10 15 1008.9 1008.4 0.0
07/05:00pm 26.4 21.5 1.7 20 12.0 WNW 17 24 9 13 1009.5 1009.0 0.0
07/04:30pm 26.5 21.7 2.4 21 11.8 NNW 17 32 9 17 1010.1 1009.6 0.0
07/04:00pm 26.3 22.5 1.6 20 12.0 NW 11 20 6 11 1010.6 1010.1 0.0
07/03:30pm 25.7 22.4 2.4 22 11.4 NNW 9 20 5 11 1010.9 1010.4 0.0
07/03:00pm 25.5 22.4 3.5 24 11.0 NNW 9 22 5 12 1011.6 1011.0 0.0
07/02:30pm 25.0 21.3 4.7 27 10.3 NW 13 24 7 13 1012.0 1011.5 0.0
07/02:00pm 24.2 21.1 3.5 26 10.2 NNW 9 26 5 14 1012.4 1011.9 0.0
07/01:30pm 24.1 21.3 5.0 29 9.7 NNE 9 19 5 10 1012.9 1012.4 0.0
07/01:00pm 22.4 19.7 5.8 34 8.5 NNE 9 20 5 11 1013.4 1012.9 0.0
07/12:30pm 21.1 18.8 4.6 34 8.1 N 6 15 3 8 1013.8 1013.3 0.0
07/12:00pm 20.3 18.1 5.5 38 7.4 NW 6 13 3 7 1014.4 1013.9 0.0
07/11:30am 19.4 17.5 6.5 43 6.5 NE 6 13 3 7 1014.7 1014.2 0.0
07/11:00am 18.6 16.5 5.8 43 6.4 ENE 6 13 3 7 1014.9 1014.4 0.0
07/10:30am 18.0 16.2 5.6 44 6.1 ENE 4 9 2 5 1015.1 1014.6 0.0
07/10:00am 17.9 15.8 5.8 45 6.0 ENE 6 13 3 7 1015.3 1014.8 0.0
07/09:30am 16.3 13.9 5.3 48 5.3 NNE 7 15 4 8 1015.4 1014.9 0.0
07/09:00am 15.7 14.0 8.2 61 3.8 ENE 7 13 4 7 1015.4 1014.9 0.0
07/08:30am 14.4 12.9 9.0 70 2.8 NE 7 11 4 6 1015.3 1014.8 0.0

Other Formats:

Comma delimited format used in spreadsheet applications
http://www.bom.gov.au/fwo/IDV60801/IDV60801.94863.axf

JavaScript Object Notation format (JSON) in row-major order
http://www.bom.gov.au/fwo/IDV60801/IDV60801.94863.json